sensor_id;sensor_type;location;lat;lon;timestamp;P1;durP1;ratioP1;P2;durP2;ratioP2
43014;SDS011;28637;50.554;7.032;2023-07-02T00:04:24;6.23;;;2.00;;
43014;SDS011;28637;50.554;7.032;2023-07-02T00:09:25;8.47;;;2.03;;
43014;SDS011;28637;50.554;7.032;2023-07-02T00:14:25;4.53;;;2.03;;
43014;SDS011;28637;50.554;7.032;2023-07-02T00:19:27;6.57;;;2.23;;
43014;SDS011;28637;50.554;7.032;2023-07-02T00:24:27;3.95;;;2.17;;
43014;SDS011;28637;50.554;7.032;2023-07-02T00:29:29;3.88;;;2.10;;
43014;SDS011;28637;50.554;7.032;2023-07-02T00:34:30;5.17;;;2.20;;
43014;SDS011;28637;50.554;7.032;2023-07-02T00:39:30;9.03;;;2.50;;
43014;SDS011;28637;50.554;7.032;2023-07-02T00:44:31;6.37;;;2.50;;
43014;SDS011;28637;50.554;7.032;2023-07-02T00:49:32;6.00;;;2.57;;
43014;SDS011;28637;50.554;7.032;2023-07-02T00:54:33;5.67;;;2.70;;
43014;SDS011;28637;50.554;7.032;2023-07-02T00:59:33;5.87;;;2.80;;
43014;SDS011;28637;50.554;7.032;2023-07-02T01:04:35;7.05;;;2.50;;
43014;SDS011;28637;50.554;7.032;2023-07-02T01:09:37;8.60;;;2.67;;
43014;SDS011;28637;50.554;7.032;2023-07-02T01:14:38;5.33;;;2.50;;
43014;SDS011;28637;50.554;7.032;2023-07-02T01:19:53;7.70;;;2.85;;
43014;SDS011;28637;50.554;7.032;2023-07-02T01:24:58;7.30;;;3.15;;
43014;SDS011;28637;50.554;7.032;2023-07-02T01:29:59;4.33;;;2.90;;
43014;SDS011;28637;50.554;7.032;2023-07-02T01:34:59;8.23;;;3.30;;
43014;SDS011;28637;50.554;7.032;2023-07-02T01:40:00;8.32;;;3.60;;
43014;SDS011;28637;50.554;7.032;2023-07-02T01:45:01;10.97;;;4.13;;
43014;SDS011;28637;50.554;7.032;2023-07-02T01:50:03;7.97;;;4.00;;
43014;SDS011;28637;50.554;7.032;2023-07-02T01:55:05;9.05;;;4.30;;
43014;SDS011;28637;50.554;7.032;2023-07-02T02:00:06;7.33;;;4.10;;
43014;SDS011;28637;50.554;7.032;2023-07-02T02:05:08;11.55;;;4.47;;
43014;SDS011;28637;50.554;7.032;2023-07-02T02:10:09;12.17;;;4.30;;
43014;SDS011;28637;50.554;7.032;2023-07-02T02:15:10;9.83;;;4.47;;
43014;SDS011;28637;50.554;7.032;2023-07-02T02:20:13;13.98;;;5.30;;
43014;SDS011;28637;50.554;7.032;2023-07-02T02:25:14;12.63;;;4.87;;
43014;SDS011;28637;50.554;7.032;2023-07-02T02:30:15;11.47;;;5.07;;
43014;SDS011;28637;50.554;7.032;2023-07-02T02:35:17;12.25;;;5.22;;
43014;SDS011;28637;50.554;7.032;2023-07-02T02:40:17;13.30;;;5.73;;
43014;SDS011;28637;50.554;7.032;2023-07-02T02:45:18;14.17;;;5.97;;
43014;SDS011;28637;50.554;7.032;2023-07-02T02:50:18;11.47;;;5.93;;
43014;SDS011;28637;50.554;7.032;2023-07-02T02:55:19;10.13;;;5.78;;
43014;SDS011;28637;50.554;7.032;2023-07-02T03:00:20;17.13;;;6.33;;
43014;SDS011;28637;50.554;7.032;2023-07-02T03:05:21;13.40;;;6.73;;
43014;SDS011;28637;50.554;7.032;2023-07-02T03:10:22;15.13;;;7.00;;
43014;SDS011;28637;50.554;7.032;2023-07-02T03:15:23;14.27;;;6.73;;
43014;SDS011;28637;50.554;7.032;2023-07-02T03:20:23;14.60;;;6.60;;
43014;SDS011;28637;50.554;7.032;2023-07-02T03:25:24;14.47;;;6.83;;
43014;SDS011;28637;50.554;7.032;2023-07-02T03:30:25;17.50;;;8.03;;
43014;SDS011;28637;50.554;7.032;2023-07-02T03:35:25;15.07;;;7.30;;
43014;SDS011;28637;50.554;7.032;2023-07-02T03:40:26;19.20;;;8.27;;
43014;SDS011;28637;50.554;7.032;2023-07-02T03:45:27;19.77;;;8.17;;
43014;SDS011;28637;50.554;7.032;2023-07-02T03:50:27;17.57;;;7.93;;
43014;SDS011;28637;50.554;7.032;2023-07-02T03:55:28;17.50;;;8.63;;
43014;SDS011;28637;50.554;7.032;2023-07-02T04:00:28;17.10;;;8.23;;
43014;SDS011;28637;50.554;7.032;2023-07-02T04:05:29;17.77;;;8.33;;
43014;SDS011;28637;50.554;7.032;2023-07-02T04:10:29;17.33;;;8.37;;
43014;SDS011;28637;50.554;7.032;2023-07-02T04:15:30;16.73;;;8.57;;
43014;SDS011;28637;50.554;7.032;2023-07-02T04:20:32;18.38;;;8.75;;
43014;SDS011;28637;50.554;7.032;2023-07-02T04:25:32;17.90;;;8.37;;
43014;SDS011;28637;50.554;7.032;2023-07-02T04:30:33;18.90;;;8.80;;
43014;SDS011;28637;50.554;7.032;2023-07-02T04:35:34;18.87;;;8.67;;
43014;SDS011;28637;50.554;7.032;2023-07-02T04:40:35;21.30;;;9.63;;
43014;SDS011;28637;50.554;7.032;2023-07-02T04:45:35;22.70;;;9.43;;
43014;SDS011;28637;50.554;7.032;2023-07-02T04:50:36;22.67;;;10.23;;
43014;SDS011;28637;50.554;7.032;2023-07-02T04:55:37;24.60;;;10.50;;
43014;SDS011;28637;50.554;7.032;2023-07-02T05:00:37;31.10;;;11.37;;
43014;SDS011;28637;50.554;7.032;2023-07-02T05:05:38;24.90;;;10.63;;
43014;SDS011;28637;50.554;7.032;2023-07-02T05:10:38;26.17;;;10.80;;
43014;SDS011;28637;50.554;7.032;2023-07-02T05:15:39;19.40;;;10.30;;
43014;SDS011;28637;50.554;7.032;2023-07-02T05:20:40;24.47;;;10.77;;
43014;SDS011;28637;50.554;7.032;2023-07-02T05:25:41;28.10;;;10.90;;
43014;SDS011;28637;50.554;7.032;2023-07-02T05:30:41;22.00;;;10.37;;
43014;SDS011;28637;50.554;7.032;2023-07-02T05:35:42;21.80;;;10.83;;
43014;SDS011;28637;50.554;7.032;2023-07-02T05:40:43;22.27;;;10.67;;
43014;SDS011;28637;50.554;7.032;2023-07-02T05:45:43;23.23;;;11.00;;
43014;SDS011;28637;50.554;7.032;2023-07-02T05:50:44;20.20;;;10.43;;
43014;SDS011;28637;50.554;7.032;2023-07-02T05:55:45;23.63;;;11.07;;
43014;SDS011;28637;50.554;7.032;2023-07-02T06:00:45;24.90;;;10.83;;
43014;SDS011;28637;50.554;7.032;2023-07-02T06:05:49;22.23;;;10.48;;
43014;SDS011;28637;50.554;7.032;2023-07-02T06:10:50;24.75;;;11.00;;
43014;SDS011;28637;50.554;7.032;2023-07-02T06:15:51;27.97;;;11.00;;
43014;SDS011;28637;50.554;7.032;2023-07-02T06:20:51;21.50;;;10.20;;
43014;SDS011;28637;50.554;7.032;2023-07-02T06:25:52;22.07;;;10.47;;
43014;SDS011;28637;50.554;7.032;2023-07-02T06:30:58;19.25;;;10.88;;
43014;SDS011;28637;50.554;7.032;2023-07-02T06:35:59;22.43;;;11.23;;
43014;SDS011;28637;50.554;7.032;2023-07-02T06:41:00;27.60;;;11.90;;
43014;SDS011;28637;50.554;7.032;2023-07-02T06:46:00;22.50;;;11.40;;
43014;SDS011;28637;50.554;7.032;2023-07-02T06:51:01;29.80;;;12.60;;
43014;SDS011;28637;50.554;7.032;2023-07-02T06:56:02;21.35;;;11.77;;
43014;SDS011;28637;50.554;7.032;2023-07-02T07:01:03;25.93;;;11.50;;
43014;SDS011;28637;50.554;7.032;2023-07-02T07:06:03;24.00;;;11.00;;
43014;SDS011;28637;50.554;7.032;2023-07-02T07:11:04;26.10;;;11.80;;
43014;SDS011;28637;50.554;7.032;2023-07-02T07:16:05;28.90;;;11.77;;
43014;SDS011;28637;50.554;7.032;2023-07-02T07:21:05;22.90;;;11.13;;
43014;SDS011;28637;50.554;7.032;2023-07-02T07:26:06;23.03;;;10.90;;
43014;SDS011;28637;50.554;7.032;2023-07-02T07:31:06;24.50;;;11.40;;
43014;SDS011;28637;50.554;7.032;2023-07-02T07:36:07;24.17;;;11.37;;
43014;SDS011;28637;50.554;7.032;2023-07-02T07:41:08;24.33;;;11.63;;
43014;SDS011;28637;50.554;7.032;2023-07-02T07:46:08;23.27;;;10.83;;
43014;SDS011;28637;50.554;7.032;2023-07-02T07:51:09;25.30;;;11.00;;
43014;SDS011;28637;50.554;7.032;2023-07-02T07:56:10;23.30;;;11.43;;
43014;SDS011;28637;50.554;7.032;2023-07-02T08:01:10;23.33;;;10.67;;
43014;SDS011;28637;50.554;7.032;2023-07-02T08:06:11;24.20;;;11.33;;
43014;SDS011;28637;50.554;7.032;2023-07-02T08:11:12;24.87;;;10.40;;
43014;SDS011;28637;50.554;7.032;2023-07-02T08:16:12;18.17;;;9.77;;
43014;SDS011;28637;50.554;7.032;2023-07-02T08:21:13;23.23;;;10.27;;
43014;SDS011;28637;50.554;7.032;2023-07-02T08:26:14;22.10;;;10.23;;
43014;SDS011;28637;50.554;7.032;2023-07-02T08:31:14;23.00;;;10.00;;
43014;SDS011;28637;50.554;7.032;2023-07-02T08:41:16;19.97;;;9.33;;
43014;SDS011;28637;50.554;7.032;2023-07-02T08:46:17;22.10;;;9.80;;
43014;SDS011;28637;50.554;7.032;2023-07-02T08:51:18;22.00;;;9.88;;
43014;SDS011;28637;50.554;7.032;2023-07-02T08:56:19;18.60;;;9.23;;
43014;SDS011;28637;50.554;7.032;2023-07-02T09:01:19;19.27;;;9.70;;
43014;SDS011;28637;50.554;7.032;2023-07-02T09:06:20;15.50;;;8.87;;
43014;SDS011;28637;50.554;7.032;2023-07-02T09:11:21;20.48;;;8.68;;
43014;SDS011;28637;50.554;7.032;2023-07-02T09:21:40;17.60;;;8.50;;
43014;SDS011;28637;50.554;7.032;2023-07-02T09:26:49;17.42;;;8.63;;
43014;SDS011;28637;50.554;7.032;2023-07-02T09:31:51;16.58;;;8.73;;
43014;SDS011;28637;50.554;7.032;2023-07-02T09:36:53;15.63;;;8.63;;
43014;SDS011;28637;50.554;7.032;2023-07-02T09:41:54;17.27;;;8.48;;
43014;SDS011;28637;50.554;7.032;2023-07-02T09:47:03;16.33;;;8.57;;
43014;SDS011;28637;50.554;7.032;2023-07-02T09:52:08;19.02;;;8.68;;
43014;SDS011;28637;50.554;7.032;2023-07-02T09:57:10;17.75;;;8.27;;
43014;SDS011;28637;50.554;7.032;2023-07-02T10:02:11;16.42;;;8.25;;
43014;SDS011;28637;50.554;7.032;2023-07-02T10:07:13;14.05;;;7.75;;
43014;SDS011;28637;50.554;7.032;2023-07-02T10:12:27;15.98;;;8.07;;
43014;SDS011;28637;50.554;7.032;2023-07-02T10:17:30;13.57;;;7.80;;
43014;SDS011;28637;50.554;7.032;2023-07-02T10:22:46;15.20;;;7.88;;
43014;SDS011;28637;50.554;7.032;2023-07-02T10:27:52;16.20;;;8.15;;
43014;SDS011;28637;50.554;7.032;2023-07-02T10:32:53;16.63;;;8.25;;
43014;SDS011;28637;50.554;7.032;2023-07-02T10:37:54;16.77;;;7.93;;
43014;SDS011;28637;50.554;7.032;2023-07-02T10:42:55;16.10;;;8.03;;
43014;SDS011;28637;50.554;7.032;2023-07-02T10:47:56;16.85;;;8.07;;
43014;SDS011;28637;50.554;7.032;2023-07-02T10:52:56;18.10;;;8.27;;
43014;SDS011;28637;50.554;7.032;2023-07-02T10:58:04;16.65;;;8.00;;
43014;SDS011;28637;50.554;7.032;2023-07-02T11:03:15;18.73;;;8.13;;
43014;SDS011;28637;50.554;7.032;2023-07-02T11:08:20;16.55;;;8.52;;
43014;SDS011;28637;50.554;7.032;2023-07-02T11:13:21;20.75;;;9.07;;
43014;SDS011;28637;50.554;7.032;2023-07-02T11:18:22;18.47;;;7.93;;
43014;SDS011;28637;50.554;7.032;2023-07-02T11:23:23;19.47;;;9.10;;
43014;SDS011;28637;50.554;7.032;2023-07-02T11:28:25;18.17;;;8.43;;
43014;SDS011;28637;50.554;7.032;2023-07-02T11:33:35;16.67;;;8.00;;
43014;SDS011;28637;50.554;7.032;2023-07-02T11:38:37;16.13;;;8.40;;
43014;SDS011;28637;50.554;7.032;2023-07-02T11:43:37;16.57;;;8.73;;
43014;SDS011;28637;50.554;7.032;2023-07-02T11:48:38;17.42;;;8.85;;
43014;SDS011;28637;50.554;7.032;2023-07-02T11:53:39;17.47;;;8.27;;
43014;SDS011;28637;50.554;7.032;2023-07-02T11:58:40;19.17;;;8.80;;
43014;SDS011;28637;50.554;7.032;2023-07-02T12:03:42;15.65;;;7.97;;
43014;SDS011;28637;50.554;7.032;2023-07-02T12:08:43;15.93;;;8.20;;
43014;SDS011;28637;50.554;7.032;2023-07-02T12:13:44;17.50;;;8.10;;
43014;SDS011;28637;50.554;7.032;2023-07-02T12:18:45;17.50;;;8.10;;
43014;SDS011;28637;50.554;7.032;2023-07-02T12:23:45;20.07;;;8.80;;
43014;SDS011;28637;50.554;7.032;2023-07-02T12:28:46;17.27;;;9.15;;
43014;SDS011;28637;50.554;7.032;2023-07-02T12:33:47;17.80;;;8.23;;
43014;SDS011;28637;50.554;7.032;2023-07-02T12:38:47;17.87;;;8.43;;
43014;SDS011;28637;50.554;7.032;2023-07-02T12:43:48;17.03;;;8.60;;
43014;SDS011;28637;50.554;7.032;2023-07-02T12:48:49;17.07;;;8.57;;
43014;SDS011;28637;50.554;7.032;2023-07-02T12:53:49;22.57;;;9.57;;
43014;SDS011;28637;50.554;7.032;2023-07-02T12:58:50;19.40;;;8.77;;
43014;SDS011;28637;50.554;7.032;2023-07-02T13:03:51;14.93;;;8.55;;
43014;SDS011;28637;50.554;7.032;2023-07-02T13:08:52;15.27;;;8.00;;
43014;SDS011;28637;50.554;7.032;2023-07-02T13:13:52;15.80;;;8.38;;
43014;SDS011;28637;50.554;7.032;2023-07-02T13:18:53;18.07;;;8.67;;
43014;SDS011;28637;50.554;7.032;2023-07-02T13:23:56;16.65;;;8.10;;
43014;SDS011;28637;50.554;7.032;2023-07-02T13:28:57;15.63;;;8.25;;
43014;SDS011;28637;50.554;7.032;2023-07-02T13:33:58;17.70;;;9.00;;
43014;SDS011;28637;50.554;7.032;2023-07-02T13:38:58;16.42;;;9.02;;
43014;SDS011;28637;50.554;7.032;2023-07-02T13:43:59;16.10;;;8.93;;
43014;SDS011;28637;50.554;7.032;2023-07-02T13:48:59;16.08;;;7.95;;
43014;SDS011;28637;50.554;7.032;2023-07-02T13:54:00;16.83;;;8.07;;
43014;SDS011;28637;50.554;7.032;2023-07-02T13:59:01;16.67;;;7.90;;
43014;SDS011;28637;50.554;7.032;2023-07-02T14:04:03;15.10;;;8.02;;
43014;SDS011;28637;50.554;7.032;2023-07-02T14:09:04;17.38;;;8.68;;
43014;SDS011;28637;50.554;7.032;2023-07-02T14:14:06;15.25;;;8.60;;
43014;SDS011;28637;50.554;7.032;2023-07-02T14:19:07;18.10;;;8.93;;
43014;SDS011;28637;50.554;7.032;2023-07-02T14:24:08;18.58;;;8.63;;
43014;SDS011;28637;50.554;7.032;2023-07-02T14:34:09;16.53;;;7.97;;
43014;SDS011;28637;50.554;7.032;2023-07-02T14:39:10;15.45;;;7.78;;
43014;SDS011;28637;50.554;7.032;2023-07-02T14:44:11;19.58;;;8.43;;
43014;SDS011;28637;50.554;7.032;2023-07-02T14:49:11;14.55;;;7.53;;
43014;SDS011;28637;50.554;7.032;2023-07-02T14:54:12;21.42;;;8.25;;
43014;SDS011;28637;50.554;7.032;2023-07-02T14:59:12;15.15;;;8.10;;
43014;SDS011;28637;50.554;7.032;2023-07-02T15:09:14;15.63;;;7.73;;
43014;SDS011;28637;50.554;7.032;2023-07-02T15:14:15;18.07;;;7.90;;
43014;SDS011;28637;50.554;7.032;2023-07-02T15:19:15;13.70;;;7.77;;
43014;SDS011;28637;50.554;7.032;2023-07-02T15:29:17;16.07;;;8.10;;
43014;SDS011;28637;50.554;7.032;2023-07-02T15:34:18;20.25;;;8.15;;
43014;SDS011;28637;50.554;7.032;2023-07-02T15:39:19;18.00;;;7.90;;
43014;SDS011;28637;50.554;7.032;2023-07-02T15:44:22;14.65;;;7.70;;
43014;SDS011;28637;50.554;7.032;2023-07-02T15:49:23;17.07;;;8.17;;
43014;SDS011;28637;50.554;7.032;2023-07-02T15:54:25;15.88;;;6.78;;
43014;SDS011;28637;50.554;7.032;2023-07-02T15:59:26;15.70;;;7.50;;
43014;SDS011;28637;50.554;7.032;2023-07-02T16:04:26;15.93;;;7.30;;
43014;SDS011;28637;50.554;7.032;2023-07-02T16:09:27;16.08;;;7.70;;
43014;SDS011;28637;50.554;7.032;2023-07-02T16:14:28;15.20;;;6.88;;
43014;SDS011;28637;50.554;7.032;2023-07-02T16:19:28;14.85;;;7.07;;
43014;SDS011;28637;50.554;7.032;2023-07-02T16:24:30;15.18;;;7.25;;
43014;SDS011;28637;50.554;7.032;2023-07-02T16:29:32;13.35;;;6.40;;
43014;SDS011;28637;50.554;7.032;2023-07-02T16:34:32;13.88;;;6.57;;
43014;SDS011;28637;50.554;7.032;2023-07-02T16:39:33;12.85;;;6.72;;
43014;SDS011;28637;50.554;7.032;2023-07-02T16:44:34;15.77;;;7.20;;
43014;SDS011;28637;50.554;7.032;2023-07-02T16:49:37;13.90;;;7.03;;
43014;SDS011;28637;50.554;7.032;2023-07-02T16:54:38;18.33;;;7.47;;
43014;SDS011;28637;50.554;7.032;2023-07-02T16:59:39;14.32;;;6.65;;
43014;SDS011;28637;50.554;7.032;2023-07-02T17:04:40;15.87;;;6.57;;
43014;SDS011;28637;50.554;7.032;2023-07-02T17:09:41;16.05;;;7.20;;
43014;SDS011;28637;50.554;7.032;2023-07-02T17:14:46;14.68;;;7.43;;
43014;SDS011;28637;50.554;7.032;2023-07-02T17:19:49;16.52;;;7.07;;
43014;SDS011;28637;50.554;7.032;2023-07-02T17:24:52;13.18;;;6.93;;
43014;SDS011;28637;50.554;7.032;2023-07-02T17:29:55;12.70;;;6.50;;
43014;SDS011;28637;50.554;7.032;2023-07-02T17:35:01;15.43;;;6.65;;
43014;SDS011;28637;50.554;7.032;2023-07-02T17:40:02;16.33;;;6.97;;
43014;SDS011;28637;50.554;7.032;2023-07-02T17:45:02;17.23;;;7.03;;
43014;SDS011;28637;50.554;7.032;2023-07-02T17:50:03;11.05;;;6.43;;
43014;SDS011;28637;50.554;7.032;2023-07-02T17:55:05;17.27;;;6.80;;
43014;SDS011;28637;50.554;7.032;2023-07-02T18:00:06;14.60;;;6.60;;
43014;SDS011;28637;50.554;7.032;2023-07-02T18:05:08;13.68;;;6.45;;
43014;SDS011;28637;50.554;7.032;2023-07-02T18:10:08;13.53;;;6.13;;
43014;SDS011;28637;50.554;7.032;2023-07-02T18:15:09;15.48;;;6.50;;
43014;SDS011;28637;50.554;7.032;2023-07-02T18:20:10;15.43;;;6.63;;
43014;SDS011;28637;50.554;7.032;2023-07-02T18:25:14;13.02;;;6.15;;
43014;SDS011;28637;50.554;7.032;2023-07-02T18:30:15;13.43;;;6.47;;
43014;SDS011;28637;50.554;7.032;2023-07-02T18:35:16;13.70;;;6.10;;
43014;SDS011;28637;50.554;7.032;2023-07-02T18:45:21;16.17;;;6.40;;
43014;SDS011;28637;50.554;7.032;2023-07-02T18:50:22;17.10;;;6.03;;
43014;SDS011;28637;50.554;7.032;2023-07-02T18:55:23;13.33;;;6.17;;
43014;SDS011;28637;50.554;7.032;2023-07-02T19:00:23;15.67;;;6.57;;
43014;SDS011;28637;50.554;7.032;2023-07-02T19:05:24;12.33;;;5.87;;
43014;SDS011;28637;50.554;7.032;2023-07-02T19:10:25;12.67;;;5.63;;
43014;SDS011;28637;50.554;7.032;2023-07-02T19:15:25;14.67;;;6.00;;
43014;SDS011;28637;50.554;7.032;2023-07-02T19:20:26;19.27;;;6.57;;
43014;SDS011;28637;50.554;7.032;2023-07-02T19:25:27;12.80;;;5.95;;
43014;SDS011;28637;50.554;7.032;2023-07-02T19:30:28;11.67;;;6.07;;
43014;SDS011;28637;50.554;7.032;2023-07-02T19:35:28;15.43;;;6.50;;
43014;SDS011;28637;50.554;7.032;2023-07-02T19:40:30;17.45;;;6.28;;
43014;SDS011;28637;50.554;7.032;2023-07-02T19:45:30;15.13;;;5.87;;
43014;SDS011;28637;50.554;7.032;2023-07-02T19:50:31;16.30;;;6.27;;
43014;SDS011;28637;50.554;7.032;2023-07-02T19:55:32;12.57;;;6.13;;
43014;SDS011;28637;50.554;7.032;2023-07-02T20:00:36;17.10;;;5.68;;
43014;SDS011;28637;50.554;7.032;2023-07-02T20:05:37;12.90;;;5.77;;
43014;SDS011;28637;50.554;7.032;2023-07-02T20:10:37;16.80;;;6.40;;
43014;SDS011;28637;50.554;7.032;2023-07-02T20:15:38;15.20;;;5.93;;
43014;SDS011;28637;50.554;7.032;2023-07-02T20:20:39;17.05;;;6.50;;
43014;SDS011;28637;50.554;7.032;2023-07-02T20:25:40;13.33;;;5.67;;
43014;SDS011;28637;50.554;7.032;2023-07-02T20:30:40;12.13;;;5.83;;
43014;SDS011;28637;50.554;7.032;2023-07-02T20:35:41;13.97;;;6.20;;
43014;SDS011;28637;50.554;7.032;2023-07-02T20:40:42;12.98;;;5.68;;
43014;SDS011;28637;50.554;7.032;2023-07-02T20:45:43;15.67;;;6.27;;
43014;SDS011;28637;50.554;7.032;2023-07-02T20:50:43;18.43;;;6.67;;
43014;SDS011;28637;50.554;7.032;2023-07-02T20:55:54;11.75;;;5.60;;
43014;SDS011;28637;50.554;7.032;2023-07-02T21:00:59;16.58;;;6.00;;
43014;SDS011;28637;50.554;7.032;2023-07-02T21:06:05;13.32;;;6.32;;
43014;SDS011;28637;50.554;7.032;2023-07-02T21:11:09;17.83;;;6.60;;
43014;SDS011;28637;50.554;7.032;2023-07-02T21:16:09;15.30;;;6.43;;
43014;SDS011;28637;50.554;7.032;2023-07-02T21:21:10;14.73;;;6.80;;
43014;SDS011;28637;50.554;7.032;2023-07-02T21:26:11;15.33;;;6.47;;
43014;SDS011;28637;50.554;7.032;2023-07-02T21:36:13;16.45;;;6.47;;
43014;SDS011;28637;50.554;7.032;2023-07-02T21:41:15;15.68;;;6.38;;
43014;SDS011;28637;50.554;7.032;2023-07-02T21:46:17;14.47;;;6.20;;
43014;SDS011;28637;50.554;7.032;2023-07-02T21:51:18;15.90;;;6.00;;
43014;SDS011;28637;50.554;7.032;2023-07-02T21:56:19;17.52;;;6.68;;
43014;SDS011;28637;50.554;7.032;2023-07-02T22:01:25;16.45;;;6.65;;
43014;SDS011;28637;50.554;7.032;2023-07-02T22:06:26;17.83;;;6.40;;
43014;SDS011;28637;50.554;7.032;2023-07-02T22:11:26;18.27;;;6.43;;
43014;SDS011;28637;50.554;7.032;2023-07-02T22:16:27;17.43;;;6.57;;
43014;SDS011;28637;50.554;7.032;2023-07-02T22:21:30;16.65;;;6.00;;
43014;SDS011;28637;50.554;7.032;2023-07-02T22:26:31;17.52;;;6.15;;
43014;SDS011;28637;50.554;7.032;2023-07-02T22:31:31;18.83;;;5.97;;
43014;SDS011;28637;50.554;7.032;2023-07-02T22:36:32;13.80;;;5.27;;
43014;SDS011;28637;50.554;7.032;2023-07-02T22:41:33;16.63;;;4.90;;
43014;SDS011;28637;50.554;7.032;2023-07-02T22:46:34;12.77;;;4.23;;
43014;SDS011;28637;50.554;7.032;2023-07-02T22:51:34;13.10;;;4.37;;
43014;SDS011;28637;50.554;7.032;2023-07-02T22:56:35;13.33;;;4.70;;
43014;SDS011;28637;50.554;7.032;2023-07-02T23:01:36;16.60;;;3.87;;
43014;SDS011;28637;50.554;7.032;2023-07-02T23:06:37;10.93;;;3.70;;
43014;SDS011;28637;50.554;7.032;2023-07-02T23:11:38;13.60;;;3.40;;
43014;SDS011;28637;50.554;7.032;2023-07-02T23:16:40;9.37;;;2.87;;
43014;SDS011;28637;50.554;7.032;2023-07-02T23:21:43;9.93;;;3.10;;
43014;SDS011;28637;50.554;7.032;2023-07-02T23:26:48;8.88;;;3.10;;
43014;SDS011;28637;50.554;7.032;2023-07-02T23:31:48;10.43;;;3.00;;
43014;SDS011;28637;50.554;7.032;2023-07-02T23:36:49;11.80;;;3.20;;
43014;SDS011;28637;50.554;7.032;2023-07-02T23:41:51;11.93;;;3.08;;
43014;SDS011;28637;50.554;7.032;2023-07-02T23:46:52;10.03;;;2.90;;
43014;SDS011;28637;50.554;7.032;2023-07-02T23:51:53;7.47;;;3.00;;
43014;SDS011;28637;50.554;7.032;2023-07-02T23:56:53;8.33;;;2.80;;
